Home > Products > Valid Products > TAF

000
FTUS41 KPBZ 251800 AAA
TAFHLG
TAF AMD
KHLG 251808Z 2518/2618 23012G24KT P6SM BKN040
     FM252200 26008G16KT P6SM SKC
     FM260800 30010KT P6SM SCT025
     FM261400 28012G20KT P6SM BKN035=



000
FTUS41 KPBZ 251800 AAA
TAFAGC
TAF AMD
KAGC 251808Z 2518/2618 23012G24KT P6SM BKN040
     FM252200 26008G16KT P6SM SKC
     FM260600 30010KT P6SM BKN025
     FM261400 28012G20KT P6SM BKN035=



000
FTUS41 KPBZ 251800 AAA
TAFPIT
TAF AMD
KPIT 251808Z 2518/2624 23012G24KT P6SM BKN040
     FM252200 26008G16KT P6SM SKC
     FM260600 30010KT P6SM BKN025
     FM261400 28012G20KT P6SM BKN035=



000
FTUS41 KPBZ 251800 AAA
TAFHLG
TAF AMD
KHLG 251808Z 2518/2618 23012G24KT P6SM BKN040
     FM252200 26008G16KT P6SM SKC
     FM260800 30010KT P6SM SCT025
     FM261400 28012G20KT P6SM BKN035=



000
FTUS41 KPBZ 251800 AAA
TAFPIT
TAF AMD
KPIT 251808Z 2518/2624 23012G24KT P6SM BKN040
     FM252200 26008G16KT P6SM SKC
     FM260600 30010KT P6SM BKN025
     FM261400 28012G20KT P6SM BKN035=



000
FTUS41 KPBZ 251800 AAA
TAFAGC
TAF AMD
KAGC 251808Z 2518/2618 23012G24KT P6SM BKN040
     FM252200 26008G16KT P6SM SKC
     FM260600 30010KT P6SM BKN025
     FM261400 28012G20KT P6SM BKN035=



000
FTUS41 KPBZ 251800 AAA
TAFBVI
TAF AMD
KBVI 251807Z 2518/2618 23012G24KT P6SM BKN040
     FM252200 26008G16KT P6SM SKC
     FM260600 30010KT P6SM BKN020
     FM261400 28012G20KT P6SM BKN035=



000
FTUS41 KPBZ 251800 AAA
TAFBVI
TAF AMD
KBVI 251807Z 2518/2618 23012G24KT P6SM BKN040
     FM252200 26008G16KT P6SM SKC
     FM260600 30010KT P6SM BKN020
     FM261400 28012G20KT P6SM BKN035=



000
FTUS41 KPBZ 251700
TAFPIT
TAF
KPIT 251720Z 2518/2624 23012G24KT P6SM SCT040
     FM252200 26008G16KT P6SM SKC
     FM260600 30010KT P6SM BKN025
     FM261400 28012G20KT P6SM BKN035=



000
FTUS41 KPBZ 251700
TAFBVI
TAF
KBVI 251720Z 2518/2618 23012G24KT P6SM SCT040
     FM252200 26008G16KT P6SM SKC
     FM260600 30010KT P6SM BKN020
     FM261400 28012G20KT P6SM BKN035=



000
FTUS41 KPBZ 251700
TAFLBE
TAF
KLBE 251720Z 2518/2618 23012G24KT P6SM SCT040
     FM252300 26008G16KT P6SM SKC
     FM260800 30010KT P6SM BKN025
     FM261400 28012G20KT P6SM BKN035=



000
FTUS41 KPBZ 251700
TAFAGC
TAF
KAGC 251720Z 2518/2618 23012G24KT P6SM SCT040
     FM252200 26008G16KT P6SM SKC
     FM260600 30010KT P6SM BKN025
     FM261400 28012G20KT P6SM BKN035=



000
FTUS41 KPBZ 251700
TAFDUJ
TAF
KDUJ 251720Z 2518/2618 23012G24KT P6SM BKN040
     FM252300 26010KT P6SM BKN020
     FM261400 29012G20KT P6SM BKN025=



000
FTUS41 KPBZ 251700
TAFZZV
TAF
KZZV 251720Z 2518/2618 25010G20KT P6SM SCT040
     FM252300 28008KT P6SM SKC
     FM261500 27010G18KT P6SM SKC=



000
FTUS41 KPBZ 251700
TAFHLG
TAF
KHLG 251720Z 2518/2618 23012G24KT P6SM SCT040
     FM252200 26008G16KT P6SM SKC
     FM260800 30010KT P6SM SCT025
     FM261400 28012G20KT P6SM BKN035=



000
FTUS41 KPBZ 251700
TAFMGW
TAF
KMGW 251720Z 2518/2618 23010G20KT P6SM SCT050
     FM260000 26008KT P6SM SKC
     FM261500 27010G18KT P6SM SCT040=



000
FTUS41 KPBZ 251700
TAFBVI
TAF
KBVI 251720Z 2518/2618 23012G24KT P6SM SCT040
     FM252200 26008G16KT P6SM SKC
     FM260600 30010KT P6SM BKN020
     FM261400 28012G20KT P6SM BKN035=



000
FTUS41 KPBZ 251700
TAFAGC
TAF
KAGC 251720Z 2518/2618 23012G24KT P6SM SCT040
     FM252200 26008G16KT P6SM SKC
     FM260600 30010KT P6SM BKN025
     FM261400 28012G20KT P6SM BKN035=



000
FTUS41 KPBZ 251700
TAFLBE
TAF
KLBE 251720Z 2518/2618 23012G24KT P6SM SCT040
     FM252300 26008G16KT P6SM SKC
     FM260800 30010KT P6SM BKN025
     FM261400 28012G20KT P6SM BKN035=



000
FTUS41 KPBZ 251700
TAFPIT
TAF
KPIT 251720Z 2518/2624 23012G24KT P6SM SCT040
     FM252200 26008G16KT P6SM SKC
     FM260600 30010KT P6SM BKN025
     FM261400 28012G20KT P6SM BKN035=



000
FTUS41 KPBZ 251700
TAFZZV
TAF
KZZV 251720Z 2518/2618 25010G20KT P6SM SCT040
     FM252300 28008KT P6SM SKC
     FM261500 27010G18KT P6SM SKC=



000
FTUS41 KPBZ 251700
TAFMGW
TAF
KMGW 251720Z 2518/2618 23010G20KT P6SM SCT050
     FM260000 26008KT P6SM SKC
     FM261500 27010G18KT P6SM SCT040=



000
FTUS41 KPBZ 251700
TAFHLG
TAF
KHLG 251720Z 2518/2618 23012G24KT P6SM SCT040
     FM252200 26008G16KT P6SM SKC
     FM260800 30010KT P6SM SCT025
     FM261400 28012G20KT P6SM BKN035=



000
FTUS41 KPBZ 251700
TAFDUJ
TAF
KDUJ 251720Z 2518/2618 23012G24KT P6SM BKN040
     FM252300 26010KT P6SM BKN020
     FM261400 29012G20KT P6SM BKN025=



000
FTUS41 KPBZ 251500 AAA
TAFLBE
TAF AMD
KLBE 251542Z 2516/2612 21008KT P6SM BKN025
     FM251800 22012G25KT P6SM BKN035
     FM252300 25013G26KT P6SM BKN025
     FM260200 28010KT P6SM SCT030=



000
FTUS41 KPBZ 251500 AAC
TAFDUJ
TAF AMD
KDUJ 251541Z 2516/2612 25010G18KT P6SM BKN025
     FM251800 23012G24KT P6SM BKN035
     FM252200 26013G26KT P6SM BKN010
     FM260300 28010KT P6SM BKN040=



000
FTUS41 KPBZ 251500 AAB
TAFDUJ
TAF AMD
KDUJ 251502Z 2515/2612 24010G18KT P6SM BKN090
     FM251800 25012G24KT P6SM BKN040
     FM252200 24013G26KT P6SM BKN010
     FM260300 28010KT P6SM BKN040=



000
FTUS41 KPBZ 251500 AAB
TAFPIT
TAF AMD
KPIT 251500Z 2515/2618 23008G16KT P6SM OVC100
     FM251800 22012G24KT P6SM BKN040
     FM252200 25013G26KT P6SM BKN025
     FM260200 28010KT P6SM SKC=



000
FTUS41 KPBZ 251400 AAA
TAFDUJ
TAF AMD
KDUJ 251423Z 2514/2612 22008KT P6SM BKN035
     FM251600 22010G20KT P6SM BKN040
     FM252000 24012G25KT P6SM BKN010
     FM260300 28010KT P6SM BKN040=



000
FTUS41 KPBZ 251400 AAA
TAFZZV
TAF AMD
KZZV 251423Z 2514/2612 21006KT P6SM BKN040
     FM251600 25012G20KT P6SM SCT025 OVC040
      TEMPO 2516/2518 BKN025
     FM260000 28008KT P6SM SKC=



000
FTUS41 KPBZ 251400 AAA
TAFHLG
TAF AMD
KHLG 251411Z 2514/2612 23007KT P6SM OVC100
     FM251700 22010G18KT P6SM BKN040
     FM252200 25013G26KT P6SM BKN025
     FM260200 28010KT P6SM SKC=



000
FTUS41 KPBZ 251400 AAA
TAFBVI
TAF AMD
KBVI 251410Z 2514/2612 23007KT P6SM OVC100
     FM251700 22010G18KT P6SM BKN040
     FM252200 24012G23KT P6SM BKN025
     FM260200 28010KT P6SM SKC
      AMD NOT SKED=



000
FTUS41 KPBZ 251400 AAA
TAFAGC
TAF AMD
KAGC 251410Z 2514/2612 23007KT P6SM OVC100
     FM251700 22010G18KT P6SM BKN040
     FM252200 24012G23KT P6SM BKN025
     FM260200 28010KT P6SM SKC=



000
FTUS41 KPBZ 251400 AAA
TAFPIT
TAF AMD
KPIT 251410Z 2514/2618 23007KT P6SM OVC100
     FM251700 22010G18KT P6SM BKN040
     FM252200 24012G23KT P6SM BKN025
     FM260200 28010KT P6SM SKC=



000
FTUS41 KPBZ 251100
TAFLBE
TAF
KLBE 251121Z 2512/2612 21008KT P6SM BKN040
     FM251800 22015G30KT P6SM BKN040
     FM252300 24012G30KT P6SM BKN015
     FM260200 28012KT P6SM SKC=



000
FTUS41 KPBZ 251100
TAFZZV
TAF
KZZV 251121Z 2512/2612 20006KT P6SM SCT050
     FM251600 22012G20KT P6SM BKN040
     FM252000 25012G20KT P6SM BKN025
     FM260000 28012KT P6SM SKC=



000
FTUS41 KPBZ 251100
TAFBVI
TAF
KBVI 251121Z 2512/2612 22006KT P6SM BKN040
     FM251700 22012G28KT P6SM BKN040
     FM252200 24012G28KT P6SM BKN015
     FM260200 28012KT P6SM SKC
      AMD NOT SKED=



000
FTUS41 KPBZ 251100
TAFAGC
TAF
KAGC 251121Z 2512/2612 21008KT P6SM BKN040
     FM251700 22012G25KT P6SM BKN040
     FM252200 24012G28KT P6SM BKN025
     FM260200 28012KT P6SM SKC=



000
FTUS41 KPBZ 251100
TAFMGW
TAF
KMGW 251121Z 2512/2612 21006KT P6SM SCT050
     FM251700 22012G20KT P6SM SCT040
     FM252300 25012G20KT P6SM BKN025
     FM260400 28012KT P6SM SKC=



000
FTUS41 KPBZ 251100
TAFHLG
TAF
KHLG 251121Z 2512/2612 21008KT P6SM BKN040
     FM251700 22015G30KT P6SM BKN040
     FM252200 24012G30KT P6SM BKN025
     FM260200 28012KT P6SM SKC=



000
FTUS41 KPBZ 251100
TAFDUJ
TAF
KDUJ 251121Z 2512/2612 22008KT P6SM BKN035
     FM251600 22012G25KT P6SM BKN040
     FM252000 24012G28KT P6SM BKN010
     FM260300 28012KT P6SM BKN040
     FM260700 29008KT P6SM SCT040=



000
FTUS41 KPBZ 251100
TAFPIT
TAF
KPIT 251121Z 2512/2618 22006KT P6SM BKN040
     FM251700 22012G25KT P6SM BKN040
     FM252200 24012G28KT P6SM BKN025
     FM260200 28012KT P6SM SKC=



000
FTUS41 KPBZ 251100
TAFBVI
TAF
KBVI 251121Z 2512/2612 22006KT P6SM BKN040
     FM251700 22012G28KT P6SM BKN040
     FM252200 24012G28KT P6SM BKN015
     FM260200 28012KT P6SM SKC
      AMD NOT SKED=



000
FTUS41 KPBZ 251100
TAFLBE
TAF
KLBE 251121Z 2512/2612 21008KT P6SM BKN040
     FM251800 22015G30KT P6SM BKN040
     FM252300 24012G30KT P6SM BKN015
     FM260200 28012KT P6SM SKC=



000
FTUS41 KPBZ 251100
TAFZZV
TAF
KZZV 251121Z 2512/2612 20006KT P6SM SCT050
     FM251600 22012G20KT P6SM BKN040
     FM252000 25012G20KT P6SM BKN025
     FM260000 28012KT P6SM SKC=



000
FTUS41 KPBZ 251100
TAFPIT
TAF
KPIT 251121Z 2512/2618 22006KT P6SM BKN040
     FM251700 22012G25KT P6SM BKN040
     FM252200 24012G28KT P6SM BKN025
     FM260200 28012KT P6SM SKC=



000
FTUS41 KPBZ 251100
TAFAGC
TAF
KAGC 251121Z 2512/2612 21008KT P6SM BKN040
     FM251700 22012G25KT P6SM BKN040
     FM252200 24012G28KT P6SM BKN025
     FM260200 28012KT P6SM SKC=



000
FTUS41 KPBZ 251100
TAFDUJ
TAF
KDUJ 251121Z 2512/2612 22008KT P6SM BKN035
     FM251600 22012G25KT P6SM BKN040
     FM252000 24012G28KT P6SM BKN010
     FM260300 28012KT P6SM BKN040
     FM260700 29008KT P6SM SCT040=



000
FTUS41 KPBZ 251100
TAFMGW
TAF
KMGW 251121Z 2512/2612 21006KT P6SM SCT050
     FM251700 22012G20KT P6SM SCT040
     FM252300 25012G20KT P6SM BKN025
     FM260400 28012KT P6SM SKC=



000
FTUS41 KPBZ 251100
TAFHLG
TAF
KHLG 251121Z 2512/2612 21008KT P6SM BKN040
     FM251700 22015G30KT P6SM BKN040
     FM252200 24012G30KT P6SM BKN025
     FM260200 28012KT P6SM SKC=



000
FTUS41 KPBZ 250800 AAB
TAFPIT
TAF AMD
KPIT 250855Z 2509/2612 VRB03KT P6SM SCT250
     FM251700 22012G25KT P6SM BKN040
     FM252200 24012G28KT P6SM BKN025
     FM260200 28012KT P6SM SKC=



000
FTUS41 KPBZ 250600 AAA
TAFMGW
TAF AMD
KMGW 250628Z 2506/2606 VRB03KT P6SM BKN040
     FM251700 22012G20KT P6SM SCT040
     FM252300 25012G20KT P6SM BKN025
     FM260400 28012KT P6SM SKC=



000
FTUS41 KPBZ 250600 AAA
TAFAGC
TAF AMD
KAGC 250627Z 2506/2606 VRB03KT P6SM BKN040
     FM251700 22012G25KT P6SM BKN040
     FM252200 24012G28KT P6SM BKN025
     FM260200 28012KT P6SM SKC=



000
FTUS41 KPBZ 250600 AAA
TAFPIT
TAF AMD
KPIT 250627Z 2506/2612 VRB03KT P6SM BKN040
     FM251700 22012G25KT P6SM BKN040
     FM252200 24012G28KT P6SM BKN025
     FM260200 28012KT P6SM SKC=



000
FTUS41 KPBZ 250500
TAFDUJ
TAF
KDUJ 250520Z 2506/2606 VRB05KT P6SM OVC040
     FM251600 22012G25KT P6SM BKN040
     FM252000 24012G28KT P6SM BKN010
     FM260300 28012KT P6SM BKN040=



000
FTUS41 KPBZ 250500
TAFHLG
TAF
KHLG 250520Z 2506/2606 VRB03KT P6SM SCT250
     FM251700 22015G30KT P6SM BKN040
     FM252200 24012G30KT P6SM BKN025
     FM260200 28012KT P6SM SKC=



000
FTUS41 KPBZ 250500
TAFZZV
TAF
KZZV 250520Z 2506/2606 VRB03KT P6SM SKC
     FM251600 22012G20KT P6SM SCT060
     FM252000 25012G20KT P6SM BKN025
     FM260000 28012KT P6SM SKC=



000
FTUS41 KPBZ 250500
TAFAGC
TAF
KAGC 250520Z 2506/2606 VRB03KT P6SM SCT250
     FM251700 22012G25KT P6SM BKN040
     FM252200 24012G28KT P6SM BKN025
     FM260200 28012KT P6SM SKC=



000
FTUS41 KPBZ 250500
TAFPIT
TAF
KPIT 250520Z 2506/2612 VRB03KT P6SM SCT250
     FM251700 22012G25KT P6SM BKN040
     FM252200 24012G28KT P6SM BKN025
     FM260200 28012KT P6SM SKC=



000
FTUS41 KPBZ 250500
TAFBVI
TAF
KBVI 250520Z 2506/2606 VRB03KT P6SM SCT250
     FM251700 22012G28KT P6SM BKN040
     FM252200 24012G28KT P6SM BKN015
     FM260200 28012KT P6SM SKC
      AMD NOT SKED=



000
FTUS41 KPBZ 250500
TAFMGW
TAF
KMGW 250520Z 2506/2606 VRB03KT P6SM SKC
     FM251700 22012G20KT P6SM SCT040
     FM252300 25012G20KT P6SM BKN025
     FM260400 28012KT P6SM SKC=



000
FTUS41 KPBZ 250500
TAFLBE
TAF
KLBE 250520Z 2506/2606 VRB03KT P6SM SCT250
     FM251800 22015G30KT P6SM BKN040
     FM252300 24012G30KT P6SM BKN015
     FM260200 28012KT P6SM SKC
      AMD NOT SKED=



000
FTUS41 KPBZ 250300 AAA
TAFDUJ
TAF AMD
KDUJ 250318Z 2503/2524 28005KT P6SM OVC040
     FM251400 VRB05KT P6SM SCT040
     FM251800 24012G20KT P6SM OVC040=



000
FTUS41 KPBZ 250300 AAA
TAFMGW
TAF AMD
KMGW 250316Z 2503/2524 26005KT P6SM SCT250
      TEMPO 2504/2506 BKN050
     FM251800 24012G20KT P6SM SCT050=



000
FTUS41 KPBZ 250300 AAA
TAFZZV
TAF AMD
KZZV 250316Z 2503/2524 VRB03KT P6SM SKC
     FM251600 24012G20KT P6SM BKN050=



000
FTUS41 KPBZ 250300 AAA
TAFHLG
TAF AMD
KHLG 250315Z 2503/2524 26005KT P6SM SCT250
      TEMPO 2504/2506 BKN050
     FM251800 24012G20KT P6SM BKN050=



000
FTUS41 KPBZ 250300 AAA
TAFAGC
TAF AMD
KAGC 250315Z 2503/2524 26005KT P6SM SCT250
      TEMPO 2504/2506 BKN050
     FM251800 24012G20KT P6SM BKN050=



000
FTUS41 KPBZ 250300 AAA
TAFPIT
TAF AMD
KPIT 250314Z 2503/2606 26005KT P6SM SCT250
      TEMPO 2504/2506 BKN050
     FM251800 24012G20KT P6SM BKN050=



000
FTUS41 KPBZ 242300
TAFZZV
TAF
KZZV 242329Z 2500/2524 VRB03KT P6SM SKC
     FM250300 23005KT P6SM BKN040
     FM251400 24012G20KT P6SM BKN035=



000
FTUS41 KPBZ 242300
TAFDUJ
TAF
KDUJ 242329Z 2500/2524 28005KT P6SM SKC
     FM250600 23005KT P6SM BKN040
     FM251600 24012G20KT P6SM BKN035=



000
FTUS41 KPBZ 242300
TAFPIT
TAF
KPIT 242329Z 2500/2606 26005KT P6SM SKC
     FM250600 23005KT P6SM BKN040
     FM251800 24012G20KT P6SM BKN035=



000
FTUS41 KPBZ 242300
TAFAGC
TAF
KAGC 242329Z 2500/2524 26005KT P6SM SKC
     FM250700 23005KT P6SM BKN040
     FM251800 24012G20KT P6SM BKN035=



000
FTUS41 KPBZ 242300
TAFLBE
TAF
KLBE 242329Z 2500/2524 25006KT P6SM SCT150
     FM250700 23005KT P6SM BKN040
     FM251900 24012G20KT P6SM BKN035
      AMD NOT SKED 2502/2511=



000
FTUS41 KPBZ 242300
TAFBVI
TAF
KBVI 242329Z 2500/2524 26004KT P6SM SKC
     FM250600 23005KT P6SM BKN040
     FM251700 24012G20KT P6SM BKN035
      AMD NOT SKED 2501/2511=



000
FTUS41 KPBZ 242300
TAFHLG
TAF
KHLG 242329Z 2500/2524 25004KT P6SM SKC
     FM250500 23005KT P6SM BKN040
     FM251600 24012G20KT P6SM BKN035=



000
FTUS41 KPBZ 242300
TAFMGW
TAF
KMGW 242329Z 2500/2524 VRB03KT P6SM SKC
     FM250800 23005KT P6SM BKN040
     FM251800 24012G20KT P6SM BKN035=



000
FTUS41 KPBZ 242100 AAA
TAFPIT
TAF AMD
KPIT 242109Z 2421/2524 28005KT P6SM SKC
     FM250900 24005KT P6SM BKN040=



000
FTUS41 KPBZ 241900 AAA
TAFLBE
TAF AMD
KLBE 241902Z 2419/2518 30010KT P6SM SCT030=



000
FTUS41 KPBZ 241800 AAA
TAFDUJ
TAF AMD
KDUJ 241857Z 2419/2518 29010G16KT P6SM SKC
     FM250000 26005KT P6SM SCT035
     FM251600 25012G18KT P6SM BKN035=



000
FTUS41 KPBZ 241700 RRA
TAFAGC
TAF
KAGC 241742Z 2418/2518 24006KT P6SM SCT020
     FM250900 24005KT P6SM BKN040=



000
FTUS41 KPBZ 241700 RRA
TAFMGW
TAF
KMGW 241742Z 2418/2518 VRB03KT P6SM SKC
     FM250900 24005KT P6SM BKN035=



000
FTUS41 KPBZ 241700 RRA
TAFDUJ
TAF
KDUJ 241742Z 2418/2518 26006KT P6SM SKC
     FM250600 26005KT P6SM BKN035=



000
FTUS41 KPBZ 241700 RRA
TAFLBE
TAF
KLBE 241742Z 2418/2518 30006KT P6SM BKN020
     FM250900 24008KT P6SM BKN035=



000
FTUS41 KPBZ 241700 RRA
TAFZZV
TAF
KZZV 241742Z 2418/2518 25004KT P6SM SKC
     FM250600 25005KT P6SM BKN035=



000
FTUS41 KPBZ 241700 RRA
TAFHLG
TAF
KHLG 241742Z 2418/2518 VRB06KT P6SM SKC=



000
FTUS41 KPBZ 241700 RRA
TAFPIT
TAF
KPIT 241742Z 2418/2524 33003KT P6SM FEW030 BKN250
     FM250900 24005KT P6SM BKN040=



000
FTUS41 KPBZ 241700 RRA
TAFBVI
TAF
KBVI 241742Z 2418/2518 25006KT P6SM SKC
     FM250900 24005KT P6SM BKN035=



000
FTUS41 KPBZ 241500 AAB
TAFPIT
TAF AMD
KPIT 241516Z 2415/2518 29005KT P6SM FEW020 BKN250
     FM250900 24005KT P6SM BKN040=



000
FTUS41 KPBZ 241400 AAC
TAFLBE
TAF AMD
KLBE 241411Z 2414/2512 25006KT 5SM BR OVC006
     FM241500 27008KT P6SM BKN200
     FM250900 24008KT P6SM BKN035=



000
FTUS41 KPBZ 241400 AAC
TAFLBE
TAF AMD
KLBE 241411Z 2414/2512 25006KT 5SM BR OVC006
     FM241500 27008KT P6SM BKN200
     FM250900 24008KT P6SM BKN035=



000
FTUS41 KPBZ 241400 AAC
TAFMGW
TAF AMD
KMGW 241411Z 2414/2512 16003KT 4SM BR BKN200
     FM241500 27005KT P6SM BKN200
     FM250900 24005KT P6SM BKN035=



000
FTUS41 KPBZ 241400 AAC
TAFMGW
TAF AMD
KMGW 241411Z 2414/2512 16003KT 4SM BR BKN200
     FM241500 27005KT P6SM BKN200
     FM250900 24005KT P6SM BKN035=



000
FTUS41 KPBZ 241400 AAB
TAFDUJ
TAF AMD
KDUJ 241410Z 2414/2512 30009KT P6SM BKN010
     FM241500 28008KT P6SM BKN200
     FM250600 26005KT P6SM BKN035=



000
FTUS41 KPBZ 241400 AAB
TAFDUJ
TAF AMD
KDUJ 241410Z 2414/2512 30009KT P6SM BKN010
     FM241500 28008KT P6SM BKN200
     FM250600 26005KT P6SM BKN035=



000
FTUS41 KPBZ 241400 AAB
TAFHLG
TAF AMD
KHLG 241409Z 2414/2512 00000KT 1/4SM FG VV001
      TEMPO 2414/2415 1/2SM FG VV002
     FM241500 27005KT P6SM BKN200=



000
FTUS41 KPBZ 241400 AAB
TAFHLG
TAF AMD
KHLG 241409Z 2414/2512 00000KT 1/4SM FG VV001
      TEMPO 2414/2415 1/2SM FG VV002
     FM241500 27005KT P6SM BKN200=



000
FTUS41 KPBZ 241300 AAB
TAFBVI
TAF AMD
KBVI 241320Z 2413/2512 29003KT P6SM BKN015 BKN200
     FM241400 VRB04KT P6SM FEW020 BKN200
     FM250900 24005KT P6SM BKN035=



000
FTUS41 KPBZ 241300 AAB
TAFMGW
TAF AMD
KMGW 241320Z 2413/2512 19003KT 2SM BR BKN200
     FM241400 27005KT P6SM BKN200
     FM250900 24005KT P6SM BKN035=



000
FTUS41 KPBZ 241300 AAB
TAFZZV
TAF AMD
KZZV 241319Z 2413/2512 00000KT P6SM BKN200
     FM250600 25005KT P6SM BKN035=



000
FTUS41 KPBZ 241300 AAB
TAFLBE
TAF AMD
KLBE 241308Z 2413/2512 27007KT 6SM BR OVC006
     FM241330 27008KT P6SM BKN200
     FM250900 24008KT P6SM BKN035=



000
FTUS41 KPBZ 241200 AAA
TAFAGC
TAF AMD
KAGC 241224Z 2412/2512 23005KT P6SM SKC
     FM250900 24005KT P6SM BKN040=



000
FTUS41 KPBZ 241200 AAA
TAFDUJ
TAF AMD
KDUJ 241224Z 2412/2512 27005KT P6SM FEW009 BKN200
     FM241500 28008KT P6SM BKN200
     FM250600 26005KT P6SM BKN035=



000
FTUS41 KPBZ 241200 AAA
TAFZZV
TAF AMD
KZZV 241224Z 2412/2512 00000KT 3SM BR FEW002
     FM250600 25005KT P6SM BKN035=



000
FTUS41 KPBZ 241200 AAA
TAFMGW
TAF AMD
KMGW 241224Z 2412/2512 00000KT 3SM BR SKC
     FM241300 27005KT P6SM BKN200
     FM250900 24005KT P6SM BKN035=



000
FTUS41 KPBZ 241200 AAA
TAFPIT
TAF AMD
KPIT 241224Z 2412/2518 00000KT P6SM FEW130 OVC250
     FM250900 24005KT P6SM BKN040=



000
FTUS41 KPBZ 241200 AAA
TAFLBE
TAF AMD
KLBE 241224Z 2412/2512 00000KT P6SM OVC008
     FM241300 27008KT P6SM BKN200
     FM250900 24008KT P6SM BKN035=



000
FTUS41 KPBZ 241200 AAA
TAFHLG
TAF AMD
KHLG 241224Z 2412/2512 00000KT 1/4SM FG VV002
      TEMPO 2412/2413 1/2SM FG VV002
     FM241330 27005KT P6SM BKN200=



000
FTUS41 KPBZ 241200 AAA
TAFBVI
TAF AMD
KBVI 241224Z 2412/2512 29003KT P6SM SKC
     FM250900 24005KT P6SM BKN035=



000
FTUS41 KPBZ 241200 RRA
TAFZZV
TAF
KZZV 241221Z 2412/2512 27005KT P6SM BKN200
     FM250600 25005KT P6SM BKN035=



000
FTUS41 KPBZ 241200 RRA
TAFHLG
TAF
KHLG 241221Z 2412/2512 27003KT 1SM BR SCT003
      TEMPO 2412/2413 1/2SM FG VV002
     FM241330 27005KT P6SM BKN200=



000
FTUS41 KPBZ 241200 RRA
TAFPIT
TAF
KPIT 241221Z 2412/2518 28005KT P6SM BKN200
     FM250900 24005KT P6SM BKN040=



000
FTUS41 KPBZ 241200 RRA
TAFMGW
TAF
KMGW 241221Z 2412/2512 00000KT 3SM BR BKN020
     FM241300 27005KT P6SM BKN200
     FM250900 24005KT P6SM BKN035=



000
FTUS41 KPBZ 241200 RRA
TAFDUJ
TAF
KDUJ 241221Z 2412/2512 30008KT P6SM SCT009 BKN015
      TEMPO 2412/2414 BKN009
     FM241500 28008KT P6SM BKN200
     FM250600 26005KT P6SM BKN035=



000
FTUS41 KPBZ 241200 RRA
TAFLBE
TAF
KLBE 241221Z 2412/2512 VRB03KT P6SM BKN010
     FM241300 27008KT P6SM BKN200
     FM250900 24008KT P6SM BKN035=



000
FTUS41 KPBZ 241200 RRA
TAFBVI
TAF
KBVI 241221Z 2412/2512 28005KT P6SM BKN200
     FM250900 24005KT P6SM BKN035=



000
FTUS41 KPBZ 241200 RRA
TAFAGC
TAF
KAGC 241221Z 2412/2512 28005KT P6SM BKN200
     FM250900 24005KT P6SM BKN040=



000
FTUS41 KPBZ 241000 AAC
TAFDUJ
TAF AMD
KDUJ 241013Z 2410/2506 30008KT P6SM SCT009 BKN015
      TEMPO 2410/2414 BKN009
     FM241400 28008KT P6SM BKN200=



000
FTUS41 KPBZ 241000 AAC
TAFMGW
TAF AMD
KMGW 241012Z 2410/2506 00000KT 3SM BR BKN020
      TEMPO 2410/2412 2SM BR
     FM241300 27005KT P6SM BKN200=



000
FTUS41 KPBZ 240900 AAB
TAFMGW
TAF AMD
KMGW 240921Z 2409/2506 00000KT 2SM BR SCT002
      TEMPO 2410/2412 1SM BR
     FM241300 27005KT P6SM BKN200=



000
FTUS41 KPBZ 240900 AAA
TAFZZV
TAF AMD
KZZV 240902Z 2409/2506 27005KT P6SM BKN200
      TEMPO 2410/2412 5SM BR=



000
FTUS41 KPBZ 240900 AAB
TAFHLG
TAF AMD
KHLG 240902Z 2409/2506 00000KT 1/4SM FG VV001
     FM241200 27003KT 2SM BR SCT003
     FM241300 27005KT P6SM BKN200=



000
FTUS41 KPBZ 240800 AAB
TAFDUJ
TAF AMD
KDUJ 240856Z 2409/2506 30008KT P6SM BKN009
     FM241400 28008KT P6SM BKN200=



000
FTUS41 KPBZ 240800 AAA
TAFPIT
TAF AMD
KPIT 240855Z 2409/2512 28005KT P6SM BKN200=



000
FTUS41 KPBZ 240700 AAA
TAFHLG
TAF AMD
KHLG 240709Z 2407/2506 00000KT 1SM BR BKN200
      TEMPO 2407/2410 1/4SM FG VV002
     FM241000 27005KT P6SM BKN200=



000
FTUS41 KPBZ 240700 AAA
TAFDUJ
TAF AMD
KDUJ 240704Z 2407/2506 30008KT P6SM SCT009
      TEMPO 2408/2412 BKN009
     FM241400 28008KT P6SM BKN200=



000
FTUS41 KPBZ 240600 AAA
TAFMGW
TAF AMD
KMGW 240659Z 2407/2506 00000KT P6SM SCT015
      TEMPO 2407/2411 3SM BR
     FM241400 27005KT P6SM BKN200=



000
FTUS41 KPBZ 240500
TAFZZV
TAF
KZZV 240522Z 2406/2506 27005KT P6SM BKN200
      TEMPO 2408/2412 3SM BR=



000
FTUS41 KPBZ 240500
TAFDUJ
TAF
KDUJ 240522Z 2406/2506 30008KT P6SM BKN009
     FM241400 28008KT P6SM BKN200=



000
FTUS41 KPBZ 240500
TAFHLG
TAF
KHLG 240522Z 2406/2506 27005KT P6SM BKN200=



000
FTUS41 KPBZ 240500
TAFPIT
TAF
KPIT 240522Z 2406/2512 28005KT P6SM BKN200=



000
FTUS41 KPBZ 240500
TAFLBE
TAF
KLBE 240522Z 2406/2506 28005KT P6SM SCT010
      TEMPO 2408/2412 BKN010
     FM241200 27005KT P6SM BKN200
      AMD NOT SKED=



000
FTUS41 KPBZ 240500
TAFBVI
TAF
KBVI 240522Z 2406/2506 28005KT P6SM BKN200
      AMD NOT SKED=



000
FTUS41 KPBZ 240500
TAFMGW
TAF
KMGW 240522Z 2406/2506 00000KT P6SM SCT015
     FM241400 27005KT P6SM BKN200=



000
FTUS41 KPBZ 240500
TAFAGC
TAF
KAGC 240522Z 2406/2506 28005KT P6SM BKN200=



000
FTUS41 KPBZ 240300 AAA
TAFZZV
TAF AMD
KZZV 240314Z 2403/2424 VRB03KT P6SM SCT200
     FM240800 28003KT 4SM BR SCT200
     FM241300 26004KT P6SM SCT150=



000
FTUS41 KPBZ 240300 AAA
TAFZZV
TAF AMD
KZZV 240314Z 2403/2424 VRB03KT P6SM SCT200
     FM240800 28003KT 4SM BR SCT200
     FM241300 26004KT P6SM SCT150=



000
FTUS41 KPBZ 240300 AAA
TAFDUJ
TAF AMD
KDUJ 240313Z 2403/2424 30008KT P6SM BKN010
     FM241400 28008KT P6SM SCT200=



000
FTUS41 KPBZ 240300 AAA
TAFDUJ
TAF AMD
KDUJ 240313Z 2403/2424 30008KT P6SM BKN010
     FM241400 28008KT P6SM SCT200=



000
FTUS41 KPBZ 240200 AAA
TAFPIT
TAF AMD
KPIT 240254Z 2403/2506 30005KT P6SM SKC
     FM240900 26007KT P6SM SCT200=



000
FTUS41 KPBZ 240200 AAA
TAFPIT
TAF AMD
KPIT 240254Z 2403/2506 30005KT P6SM SKC
     FM240900 26007KT P6SM SCT200=



000
FTUS41 KPBZ 232300
TAFDUJ
TAF
KDUJ 232320Z 2400/2424 29005KT P6SM FEW200
     FM241100 26007KT P6SM SCT200=



000
FTUS41 KPBZ 232300
TAFMGW
TAF
KMGW 232320Z 2400/2424 29005KT P6SM SCT040
     FM241000 26007KT P6SM SCT200=



000
FTUS41 KPBZ 232300
TAFHLG
TAF
KHLG 232320Z 2400/2424 29008KT P6SM SKC
     FM240600 26007KT P6SM SCT200=



000
FTUS41 KPBZ 232300
TAFLBE
TAF
KLBE 232320Z 2400/2424 31008KT P6SM SCT040
     FM241100 26007KT P6SM SCT200=



000
FTUS41 KPBZ 232300
TAFZZV
TAF
KZZV 232320Z 2400/2424 32012G18KT P6SM SKC
     FM240800 28003KT 4SM BR FEW200
     FM241300 26004KT P6SM SCT150=



000
FTUS41 KPBZ 232300
TAFBVI
TAF
KBVI 232320Z 2400/2424 31008KT P6SM SKC
     FM240900 26007KT P6SM SCT200
      AMD NOT SKED 2401/2411=



000
FTUS41 KPBZ 232300
TAFPIT
TAF
KPIT 232320Z 2400/2506 31010KT P6SM SKC
     FM240900 26007KT P6SM SCT200=



000
FTUS41 KPBZ 232300
TAFAGC
TAF
KAGC 232320Z 2400/2424 31008KT P6SM SKC
     FM240900 26007KT P6SM SCT200=



000
FTUS41 KPBZ 232100 AAA
TAFPIT
TAF AMD
KPIT 232102Z 2321/2424 32012KT P6SM SKC
     FM232300 29005KT P6SM FEW200=



000
FTUS41 KPBZ 231900 AAA
TAFMGW
TAF AMD
KMGW 231946Z 2320/2418 31008KT P6SM BKN035
     FM232100 32012G18KT P6SM SCT035
     FM232300 29005KT P6SM FEW200=



000
FTUS41 KPBZ 231900 AAA
TAFMGW
TAF AMD
KMGW 231946Z 2320/2418 31008KT P6SM BKN035
     FM232100 32012G18KT P6SM SCT035
     FM232300 29005KT P6SM FEW200=



000
FTUS41 KPBZ 231900 AAA
TAFHLG
TAF AMD
KHLG 231945Z 2320/2418 32012G18KT P6SM SCT035
     FM232300 VRB04KT P6SM SCT025=



000
FTUS41 KPBZ 231900 AAA
TAFHLG
TAF AMD
KHLG 231945Z 2320/2418 32012G18KT P6SM SCT035
     FM232300 VRB04KT P6SM SCT025=



000
FTUS41 KPBZ 231700 CCA
TAFMGW
TAF COR
KMGW 231737Z 2318/2418 31011KT P6SM BKN025
     FM232100 32012G18KT P6SM SCT035
     FM232300 29005KT P6SM FEW200=



000
FTUS41 KPBZ 231700 CCA
TAFHLG
TAF COR
KHLG 231737Z 2318/2418 32012G18KT P6SM BKN025
     FM232300 VRB04KT P6SM SCT025=



000
FTUS41 KPBZ 231700
TAFZZV
TAF
KZZV 231733Z 2318/2418 33008KT P6SM SCT025
     FM232100 32012G18KT P6SM SCT025
     FM240900 00000KT 5SM BR SCT200=



000
FTUS41 KPBZ 231700
TAFDUJ
TAF
KDUJ 231733Z 2318/2418 34011G17KT P6SM SCT035
     FM232300 29005KT P6SM FEW200=



000
FTUS41 KPBZ 231700
TAFMGW
TAF
KMGW 231733Z 2318/2418 31011KT P6SM OVC017
     FM232100 32012G18KT P6SM SCT035
     FM232300 29005KT P6SM FEW200=



000
FTUS41 KPBZ 231700
TAFHLG
TAF
KHLG 231733Z 2318/2418 32012G18KT P6SM SCT020
     FM232300 VRB04KT P6SM FEW200=



000
FTUS41 KPBZ 231700
TAFAGC
TAF
KAGC 231733Z 2318/2418 32012G18KT P6SM SCT035
     FM232300 29005KT P6SM FEW200=



000
FTUS41 KPBZ 231700
TAFLBE
TAF
KLBE 231733Z 2318/2418 32012G18KT P6SM SCT035
     FM232300 29005KT P6SM FEW200=



000
FTUS41 KPBZ 231700
TAFPIT
TAF
KPIT 231733Z 2318/2424 32012G18KT P6SM SCT035
     FM232300 29005KT P6SM FEW200=



000
FTUS41 KPBZ 231700
TAFBVI
TAF
KBVI 231733Z 2318/2418 32012G18KT P6SM SCT035
     FM232300 29005KT P6SM FEW200=



000
FTUS41 KPBZ 231500 AAA
TAFLBE
TAF AMD
KLBE 231502Z 2315/2412 32011KT P6SM OVC035
     FM231700 32012G18KT P6SM SCT035
     FM232300 29005KT P6SM FEW200=



000
FTUS41 KPBZ 231500 AAA
TAFMGW
TAF AMD
KMGW 231502Z 2315/2412 31011KT P6SM OVC017
     FM231900 32012G18KT P6SM SCT035
     FM232300 29005KT P6SM FEW200=



000
FTUS41 KPBZ 231500 AAA
TAFAGC
TAF AMD
KAGC 231502Z 2315/2412 32012G18KT P6SM FEW020
     FM232300 29005KT P6SM FEW200=



000
FTUS41 KPBZ 231500 AAA
TAFDUJ
TAF AMD
KDUJ 231502Z 2315/2412 34011G17KT P6SM FEW015
     FM232300 29005KT P6SM FEW200=



000
FTUS41 KPBZ 231500 AAA
TAFHLG
TAF AMD
KHLG 231502Z 2315/2412 32011KT P6SM BKN015
     FM231800 32012G18KT P6SM SCT020
     FM232300 VRB04KT P6SM FEW200=



000
FTUS41 KPBZ 231500 AAA
TAFPIT
TAF AMD
KPIT 231502Z 2315/2418 32012G18KT P6SM SKC
     FM232300 29005KT P6SM FEW200=



000
FTUS41 KPBZ 231500 AAA
TAFZZV
TAF AMD
KZZV 231502Z 2315/2412 32010G15KT P6SM BKN015
     FM232100 32012G18KT P6SM SCT025
     FM240900 00000KT 5SM BR SCT200=



000
FTUS41 KPBZ 231500 AAA
TAFBVI
TAF AMD
KBVI 231502Z 2315/2412 32012G18KT P6SM SKC
     FM232300 29005KT P6SM FEW200=



000
FTUS41 KPBZ 231100 CCA
TAFZZV
TAF COR
KZZV 231132Z 2312/2412 33003KT P6SM SCT010
      TEMPO 2312/2314 BKN010
     FM231500 32005KT P6SM SCT040
     FM240900 00000KT 5SM BR SCT200=



000
FTUS41 KPBZ 231100
TAFMGW
TAF
KMGW 231121Z 2312/2412 33005KT P6SM OVC015
     FM231500 30005KT P6SM BKN025
     FM231700 29008KT P6SM SCT035
     FM240400 00000KT P6SM SCT200=



000
FTUS41 KPBZ 231100
TAFHLG
TAF
KHLG 231121Z 2312/2412 33005KT P6SM SCT006
      TEMPO 2312/2313 BKN006
     FM231500 32008KT P6SM SCT035
     FM240600 00000KT P6SM SCT200=



000
FTUS41 KPBZ 231100
TAFPIT
TAF
KPIT 231121Z 2312/2418 33008KT P6SM SCT015 BKN025
      TEMPO 2312/2314 BKN015
     FM231600 32010KT P6SM SCT035
     FM240600 29005KT P6SM SCT200=



000
FTUS41 KPBZ 231100
TAFLBE
TAF
KLBE 231121Z 2312/2412 33005KT P6SM OVC015
     FM231500 31008KT P6SM BKN025
     FM231800 32010KT P6SM SCT035
     FM240800 VRB03KT 5SM BR SCT200=



000
FTUS41 KPBZ 231100
TAFDUJ
TAF
KDUJ 231121Z 2312/2412 35010KT P6SM BKN015
     FM231500 32008KT P6SM BKN020
     FM231700 33010KT P6SM SCT035
     FM240400 30005KT P6SM SCT200=



000
FTUS41 KPBZ 231100
TAFZZV
TAF
KZZV 231121Z 2312/2412 33003KT P6SM SCT009
      TEMPO 2312/2314 5SM BR BKN009
     FM231500 32005KT P6SM SCT040
     FM240900 00000KT 5SM BR SCT200=



000
FTUS41 KPBZ 231100
TAFBVI
TAF
KBVI 231121Z 2312/2412 33008KT P6SM SCT015 BKN025
      TEMPO 2312/2314 BKN015
     FM231600 32010KT P6SM SCT035
     FM240600 29003KT P6SM SCT200=



000
FTUS41 KPBZ 231100
TAFAGC
TAF
KAGC 231121Z 2312/2412 33008KT P6SM SCT015 BKN025
      TEMPO 2312/2314 BKN015
     FM231600 32010KT P6SM SCT035
     FM240600 29003KT P6SM SCT200=



000
FTUS41 KPBZ 231000 AAA
TAFBVI
TAF AMD
KBVI 231059Z 2311/2406 33005KT P6SM SCT015 BKN025
      TEMPO 2311/2314 BKN015
     FM231500 32008KT P6SM SCT035
      AMD NOT SKED=



000
FTUS41 KPBZ 231000 AAB
TAFZZV
TAF AMD
KZZV 231027Z 2310/2406 33005KT P6SM SCT008
      TEMPO 2310/2313 BKN008
     FM231500 32005KT P6SM SCT040=



000
FTUS41 KPBZ 231000 AAA
TAFHLG
TAF AMD
KHLG 231021Z 2310/2406 33005KT P6SM SCT008
      TEMPO 2310/2313 BKN008
     FM231500 32008KT P6SM SCT035=



000
FTUS41 KPBZ 231000 AAA
TAFZZV
TAF AMD
KZZV 231021Z 2310/2406 33005KT P6SM SCT010
      TEMPO 2310/2313 BKN010
     FM231500 32005KT P6SM SCT040=



000
FTUS41 KPBZ 230900 AAA
TAFAGC
TAF AMD
KAGC 230929Z 2309/2406 33005KT P6SM SCT015 BKN025
      TEMPO 2310/2312 BKN015
     FM231500 32008KT P6SM SCT035=



000
FTUS41 KPBZ 230800 AAA
TAFPIT
TAF AMD
KPIT 230858Z 2309/2412 33008KT P6SM SCT015 BKN025
      TEMPO 2309/2312 BKN015
     FM231500 32008KT P6SM SCT035=



000
FTUS41 KPBZ 230800 AAA
TAFMGW
TAF AMD
KMGW 230858Z 2309/2406 33005KT P6SM SCT015 BKN025
      TEMPO 2309/2312 BKN015
     FM231700 32008KT P6SM SCT035=



000
FTUS41 KPBZ 230500
TAFHLG
TAF
KHLG 230526Z 2306/2406 33005KT P6SM SCT025 BKN040
      TEMPO 2306/2310 BKN025
     FM231500 32008KT P6SM SCT035=



000
FTUS41 KPBZ 230500
TAFLBE
TAF
KLBE 230526Z 2306/2406 33005KT P6SM OVC015
     FM231500 31008KT P6SM BKN025
     FM231800 32008KT P6SM SCT035
      AMD NOT SKED=



000
FTUS41 KPBZ 230500
TAFBVI
TAF
KBVI 230526Z 2306/2406 33005KT P6SM SCT020 OVC035
      TEMPO 2306/2310 BKN020
     FM231500 32008KT P6SM SCT035
      AMD NOT SKED=



000
FTUS41 KPBZ 230500
TAFZZV
TAF
KZZV 230526Z 2306/2406 33005KT P6SM BKN035
     FM231500 32005KT P6SM SCT040=



000
FTUS41 KPBZ 230500
TAFMGW
TAF
KMGW 230526Z 2306/2406 33005KT P6SM BKN020
     FM231700 32008KT P6SM SCT035=



000
FTUS41 KPBZ 230500
TAFAGC
TAF
KAGC 230526Z 2306/2406 33005KT P6SM SCT025 OVC040
      TEMPO 2306/2310 BKN025
     FM231500 32008KT P6SM SCT035=



000
FTUS41 KPBZ 230500
TAFPIT
TAF
KPIT 230526Z 2306/2412 33005KT P6SM SCT025 OVC040
      TEMPO 2306/2310 BKN025
     FM231500 32008KT P6SM SCT035=



000
FTUS41 KPBZ 230500
TAFDUJ
TAF
KDUJ 230526Z 2306/2406 35010KT P6SM OVC010
     FM231500 32008KT P6SM BKN020
     FM231700 32010KT P6SM SCT035=



000
FTUS41 KPBZ 230300 AAB
TAFAGC
TAF AMD
KAGC 230346Z 2304/2324 33007KT P6SM BKN025
     FM231800 32007KT P6SM SCT035=



000
FTUS41 KPBZ 230300 AAB
TAFAGC
TAF AMD
KAGC 230346Z 2304/2324 33007KT P6SM BKN025
     FM231800 32007KT P6SM SCT035=



000
FTUS41 KPBZ 230300 AAB
TAFPIT
TAF AMD
KPIT 230303Z 2303/2406 35008KT P6SM BKN020
     FM230900 31007KT P6SM BKN025
     FM231800 32007KT P6SM SCT035=



000
FTUS41 KPBZ 230000 AAA
TAFZZV
TAF AMD
KZZV 230059Z 2301/2324 34007KT P6SM OVC035
     FM231400 28005KT P6SM SCT030=



000
FTUS41 KPBZ 230000 AAA
TAFZZV
TAF AMD
KZZV 230059Z 2301/2324 34007KT P6SM OVC035
     FM231400 28005KT P6SM SCT030=



000
FTUS41 KPBZ 230000 AAA
TAFAGC
TAF AMD
KAGC 230058Z 2301/2324 34007KT P6SM OVC018
     FM230400 33006KT P6SM OVC020
     FM230900 31007KT P6SM BKN025
     FM231800 32007KT P6SM SCT035=



000
FTUS41 KPBZ 230000 AAA
TAFAGC
TAF AMD
KAGC 230058Z 2301/2324 34007KT P6SM OVC018
     FM230400 33006KT P6SM OVC020
     FM230900 31007KT P6SM BKN025
     FM231800 32007KT P6SM SCT035=



000
FTUS41 KPBZ 230000 AAA
TAFPIT
TAF AMD
KPIT 230057Z 2301/2406 34009KT P6SM OVC018
     FM230400 35008KT P6SM OVC020
     FM230900 31007KT P6SM BKN025
     FM231800 32007KT P6SM SCT035=



000
FTUS41 KPBZ 230000 AAA
TAFPIT
TAF AMD
KPIT 230057Z 2301/2406 34009KT P6SM OVC018
     FM230400 35008KT P6SM OVC020
     FM230900 31007KT P6SM BKN025
     FM231800 32007KT P6SM SCT035=



000
FTUS41 KPBZ 222300
TAFPIT
TAF
KPIT 222322Z 2300/2406 35009KT P6SM OVC020
     FM230900 31007KT P6SM BKN025
     FM231800 32007KT P6SM SCT035=



000
FTUS41 KPBZ 222300
TAFZZV
TAF
KZZV 222322Z 2300/2324 34007KT P6SM OVC027
     FM231400 28005KT P6SM SCT030=



000
FTUS41 KPBZ 222300
TAFDUJ
TAF
KDUJ 222322Z 2300/2324 35008KT P6SM OVC012
     FM231200 32008KT P6SM OVC020
     FM232000 32010KT P6SM SCT025=



000
FTUS41 KPBZ 222300
TAFBVI
TAF
KBVI 222322Z 2300/2324 34010KT P6SM OVC018
     FM230200 33007KT P6SM OVC020
     FM230800 32008KT P6SM BKN025
     FM231700 32007KT P6SM SCT035
      AMD NOT SKED 2301/2311=



000
FTUS41 KPBZ 222300
TAFLBE
TAF
KLBE 222322Z 2300/2324 35009KT P6SM OVC020
     FM231500 32006KT P6SM BKN025
     FM232000 30008KT P6SM SCT035=



000
FTUS41 KPBZ 222300
TAFHLG
TAF
KHLG 222322Z 2300/2324 33006KT P6SM OVC020
     FM231700 32007KT P6SM SCT035=



000
FTUS41 KPBZ 222300
TAFAGC
TAF
KAGC 222322Z 2300/2324 33011KT P6SM OVC020
     FM230900 31007KT P6SM BKN025
     FM231800 32007KT P6SM SCT035=



000
FTUS41 KPBZ 222300
TAFMGW
TAF
KMGW 222322Z 2300/2324 33005KT P6SM OVC017
     FM230200 VRB04KT P6SM OVC020
     FM230800 VRB04KT P6SM BKN025
     FM231700 28005KT P6SM SCT035=



000
FTUS41 KPBZ 222000 AAA
TAFPIT
TAF AMD
KPIT 222055Z 2221/2324 33008KT P6SM OVC020
     FM230900 31007KT P6SM BKN025
     FM231800 32007KT P6SM SCT035=



    US Dept of Commerce
    National Oceanic and Atmospheric Administration
    National Weather Service
    1325 East West Highway
    Silver Spring, MD 20910
    Page Author: NWS Internet Services Team
Disclaimer
Information Quality
Credits
Glossary
Privacy Policy
Freedom of Information Act (FOIA)
About Us
Career Opportunities